DAL1180 LFPG-EGLL
Flight info
| Callsign | DAL1180 |
|---|---|
| Flight time | 0h 40m |
| Altitude | 24000 |
| Route | OPALE DCT KESAX DCT DIMAL DCT ALESO |
| Aircraft | A320/M-SDE3FGHIRWY/LB1 |
Departure
| Time | 2026-05-09 01:55 |
|---|---|
| Airport | Charles de Gaulle International Airport (LFPG) |
Arrival
| Time | 2026-05-09 02:36 |
|---|---|
| Airport | London Heathrow Airport (EGLL) |
| Time | Latitude | Longitude | Altitude | Speed | Heading |
|---|---|---|---|---|---|
| 2026-05-09 01:10 | 49.00687 | 2.56051 | 355 ft | 0 kts | 355° |
| 2026-05-09 01:38 | 49.00670 | 2.56053 | 354 ft | 3 kts | 354° |
| 2026-05-09 01:39 | 49.00650 | 2.56057 | 358 ft | 3 kts | 350° |
| 2026-05-09 01:39 | 49.00630 | 2.56063 | 361 ft | 3 kts | 340° |
| 2026-05-09 01:39 | 49.00613 | 2.56076 | 360 ft | 3 kts | 310° |
| 2026-05-09 01:39 | 49.00607 | 2.56094 | 359 ft | 1 kts | 257° |
| 2026-05-09 01:44 | 49.00604 | 2.56074 | 359 ft | 6 kts | 257° |
| 2026-05-09 01:44 | 49.00585 | 2.55999 | 354 ft | 7 kts | 249° |
| 2026-05-09 01:45 | 49.00573 | 2.55935 | 358 ft | 6 kts | 257° |
| 2026-05-09 01:45 | 49.00568 | 2.55856 | 362 ft | 12 kts | 265° |
| 2026-05-09 01:45 | 49.00560 | 2.55723 | 361 ft | 12 kts | 264° |
| 2026-05-09 01:45 | 49.00552 | 2.55600 | 363 ft | 11 kts | 264° |
| 2026-05-09 01:46 | 49.00549 | 2.55497 | 359 ft | 9 kts | 274° |
| 2026-05-09 01:46 | 49.00572 | 2.55425 | 363 ft | 7 kts | 315° |
| 2026-05-09 01:46 | 49.00609 | 2.55395 | 361 ft | 5 kts | 343° |
| 2026-05-09 01:46 | 49.00640 | 2.55382 | 354 ft | 6 kts | 344° |
| 2026-05-09 01:47 | 49.00705 | 2.55355 | 357 ft | 12 kts | 345° |
| 2026-05-09 01:47 | 49.00790 | 2.55319 | 358 ft | 13 kts | 345° |
| 2026-05-09 01:47 | 49.00883 | 2.55280 | 361 ft | 15 kts | 344° |
| 2026-05-09 01:47 | 49.00987 | 2.55235 | 360 ft | 16 kts | 344° |
| 2026-05-09 01:48 | 49.01100 | 2.55185 | 359 ft | 18 kts | 343° |
| 2026-05-09 01:48 | 49.01225 | 2.55170 | 354 ft | 19 kts | 15° |
| 2026-05-09 01:48 | 49.01354 | 2.55215 | 362 ft | 20 kts | 351° |
| 2026-05-09 01:48 | 49.01487 | 2.55171 | 354 ft | 20 kts | 353° |
| 2026-05-09 01:49 | 49.01627 | 2.55154 | 356 ft | 21 kts | 355° |
| 2026-05-09 01:49 | 49.01775 | 2.55135 | 361 ft | 22 kts | 355° |
| 2026-05-09 01:49 | 49.01910 | 2.55099 | 359 ft | 20 kts | 347° |
| 2026-05-09 01:49 | 49.02018 | 2.54990 | 361 ft | 20 kts | 282° |
| 2026-05-09 01:50 | 49.02023 | 2.54778 | 354 ft | 21 kts | 264° |
| 2026-05-09 01:50 | 49.02012 | 2.54558 | 357 ft | 21 kts | 266° |
| 2026-05-09 01:50 | 49.02001 | 2.54340 | 358 ft | 20 kts | 265° |
| 2026-05-09 01:50 | 49.01962 | 2.54166 | 363 ft | 17 kts | 219° |
| 2026-05-09 01:51 | 49.01898 | 2.54029 | 358 ft | 16 kts | 257° |
| 2026-05-09 01:51 | 49.01883 | 2.53860 | 360 ft | 16 kts | 265° |
| 2026-05-09 01:51 | 49.01876 | 2.53681 | 361 ft | 17 kts | 266° |
| 2026-05-09 01:51 | 49.01865 | 2.53490 | 354 ft | 19 kts | 262° |
| 2026-05-09 01:52 | 49.01850 | 2.53285 | 359 ft | 20 kts | 266° |
| 2026-05-09 01:52 | 49.01842 | 2.53080 | 356 ft | 19 kts | 266° |
| 2026-05-09 01:52 | 49.01834 | 2.52880 | 354 ft | 19 kts | 266° |
| 2026-05-09 01:52 | 49.01822 | 2.52669 | 359 ft | 21 kts | 266° |
| 2026-05-09 01:53 | 49.01812 | 2.52479 | 357 ft | 14 kts | 263° |
| 2026-05-09 01:53 | 49.01853 | 2.52360 | 359 ft | 14 kts | 336° |
| 2026-05-09 01:53 | 49.01955 | 2.52345 | 354 ft | 16 kts | 357° |
| 2026-05-09 01:53 | 49.02067 | 2.52333 | 357 ft | 17 kts | 355° |
| 2026-05-09 01:54 | 49.02117 | 2.52346 | 356 ft | 0 kts | 82° |
| 2026-05-09 01:54 | 49.02117 | 2.52347 | 354 ft | 0 kts | 82° |
| 2026-05-09 01:54 | 49.02120 | 2.52381 | 355 ft | 24 kts | 84° |
| 2026-05-09 01:54 | 49.02156 | 2.53015 | 360 ft | 93 kts | 85° |
| 2026-05-09 01:55 | 49.02229 | 2.54295 | 356 ft | 147 kts | 85° |
| 2026-05-09 01:55 | 49.02316 | 2.56051 | 482 ft | 178 kts | 87° |
| 2026-05-09 01:55 | 49.02383 | 2.57958 | 1069 ft | 181 kts | 83° |
| 2026-05-09 01:55 | 49.02493 | 2.59996 | 1384 ft | 205 kts | 83° |
| 2026-05-09 01:56 | 49.02626 | 2.62288 | 1746 ft | 229 kts | 83° |
| 2026-05-09 01:56 | 49.02769 | 2.64831 | 2195 ft | 250 kts | 83° |
| 2026-05-09 01:56 | 49.02917 | 2.67513 | 2991 ft | 256 kts | 83° |
| 2026-05-09 01:56 | 49.03065 | 2.70214 | 3956 ft | 256 kts | 84° |
| 2026-05-09 01:57 | 49.03292 | 2.72907 | 4840 ft | 258 kts | 72° |
| 2026-05-09 01:57 | 49.04292 | 2.75175 | 5580 ft | 268 kts | 39° |
| 2026-05-09 01:57 | 49.06037 | 2.76230 | 6301 ft | 278 kts | 4° |
| 2026-05-09 01:57 | 49.07951 | 2.75708 | 7037 ft | 285 kts | 339° |
| 2026-05-09 01:58 | 49.09737 | 2.74381 | 7836 ft | 287 kts | 330° |
| 2026-05-09 01:58 | 49.11459 | 2.72792 | 8632 ft | 290 kts | 328° |
| 2026-05-09 01:58 | 49.13183 | 2.71155 | 9416 ft | 293 kts | 328° |
| 2026-05-09 01:58 | 49.14947 | 2.69545 | 9899 ft | 297 kts | 329° |
| 2026-05-09 01:59 | 49.16744 | 2.67992 | 10031 ft | 296 kts | 330° |
| 2026-05-09 01:59 | 49.18554 | 2.66500 | 10069 ft | 295 kts | 332° |
| 2026-05-09 01:59 | 49.20410 | 2.65020 | 10071 ft | 314 kts | 332° |
| 2026-05-09 01:59 | 49.22437 | 2.63395 | 10067 ft | 344 kts | 329° |
| 2026-05-09 02:00 | 49.24460 | 2.61290 | 10075 ft | 361 kts | 324° |
| 2026-05-09 02:00 | 49.26568 | 2.59003 | 10202 ft | 382 kts | 324° |
| 2026-05-09 02:00 | 49.28771 | 2.56596 | 10516 ft | 395 kts | 324° |
| 2026-05-09 02:00 | 49.31021 | 2.54127 | 11080 ft | 399 kts | 324° |
| 2026-05-09 02:01 | 49.33255 | 2.51667 | 11689 ft | 402 kts | 324° |
| 2026-05-09 02:01 | 49.35561 | 2.49127 | 12327 ft | 405 kts | 323° |
| 2026-05-09 02:01 | 49.37862 | 2.46594 | 12925 ft | 408 kts | 323° |
| 2026-05-09 02:01 | 49.40175 | 2.44049 | 13492 ft | 411 kts | 323° |
| 2026-05-09 02:02 | 49.42507 | 2.41483 | 14034 ft | 415 kts | 323° |
| 2026-05-09 02:02 | 49.44865 | 2.38884 | 14556 ft | 418 kts | 323° |
| 2026-05-09 02:02 | 49.47236 | 2.36264 | 15057 ft | 422 kts | 323° |
| 2026-05-09 02:02 | 49.49623 | 2.33621 | 15531 ft | 425 kts | 323° |
| 2026-05-09 02:03 | 49.52011 | 2.30979 | 15985 ft | 429 kts | 323° |
| 2026-05-09 02:03 | 49.54442 | 2.28287 | 16421 ft | 432 kts | 323° |
| 2026-05-09 02:03 | 49.56891 | 2.25574 | 16849 ft | 435 kts | 323° |
| 2026-05-09 02:03 | 49.59353 | 2.22836 | 17269 ft | 438 kts | 323° |
| 2026-05-09 02:04 | 49.61824 | 2.20080 | 17656 ft | 441 kts | 323° |
| 2026-05-09 02:04 | 49.64323 | 2.17297 | 18046 ft | 444 kts | 323° |
| 2026-05-09 02:04 | 49.66838 | 2.14497 | 18428 ft | 447 kts | 323° |
| 2026-05-09 02:04 | 49.69359 | 2.11684 | 18831 ft | 448 kts | 323° |
| 2026-05-09 02:05 | 49.71889 | 2.08855 | 19201 ft | 451 kts | 323° |
| 2026-05-09 02:05 | 49.74435 | 2.06007 | 19559 ft | 452 kts | 323° |
| 2026-05-09 02:05 | 49.76981 | 2.03151 | 19913 ft | 454 kts | 323° |
| 2026-05-09 02:05 | 49.79546 | 2.00269 | 20259 ft | 455 kts | 323° |
| 2026-05-09 02:06 | 49.82102 | 1.97394 | 20617 ft | 455 kts | 323° |
| 2026-05-09 02:06 | 49.84668 | 1.94507 | 20949 ft | 456 kts | 323° |
| 2026-05-09 02:06 | 49.86366 | 1.92590 | 21150 ft | 457 kts | 323° |
| 2026-05-09 02:07 | 49.91501 | 1.86751 | 21757 ft | 459 kts | 322° |
| 2026-05-09 02:07 | 49.94036 | 1.83724 | 22048 ft | 460 kts | 321° |
| 2026-05-09 02:07 | 49.96544 | 1.80627 | 22327 ft | 461 kts | 321° |
| 2026-05-09 02:07 | 49.99033 | 1.77496 | 22582 ft | 462 kts | 320° |
| 2026-05-09 02:08 | 50.02343 | 1.73314 | 22920 ft | 463 kts | 320° |
| 2026-05-09 02:08 | 50.04039 | 1.71181 | 23086 ft | 464 kts | 321° |
| 2026-05-09 02:08 | 50.06609 | 1.68142 | 23329 ft | 465 kts | 326° |
| 2026-05-09 02:08 | 50.09421 | 1.65688 | 23554 ft | 466 kts | 334° |
| 2026-05-09 02:09 | 50.12376 | 1.63576 | 23770 ft | 467 kts | 335° |
| 2026-05-09 02:09 | 50.15331 | 1.61457 | 23948 ft | 468 kts | 334° |
| 2026-05-09 02:09 | 50.18282 | 1.59324 | 24086 ft | 470 kts | 334° |
| 2026-05-09 02:09 | 50.21254 | 1.57162 | 24106 ft | 472 kts | 334° |
| 2026-05-09 02:10 | 50.24234 | 1.54985 | 24112 ft | 473 kts | 334° |
| 2026-05-09 02:10 | 50.27208 | 1.52807 | 24109 ft | 473 kts | 334° |
| 2026-05-09 02:10 | 50.30189 | 1.50622 | 24110 ft | 473 kts | 334° |
| 2026-05-09 02:10 | 50.33167 | 1.48443 | 24109 ft | 473 kts | 334° |
| 2026-05-09 02:11 | 50.36146 | 1.46266 | 24109 ft | 473 kts | 334° |
| 2026-05-09 02:11 | 50.39131 | 1.44083 | 24109 ft | 473 kts | 334° |
| 2026-05-09 02:11 | 50.42112 | 1.41896 | 24110 ft | 473 kts | 334° |
| 2026-05-09 02:11 | 50.45093 | 1.39702 | 24110 ft | 473 kts | 334° |
| 2026-05-09 02:12 | 50.47978 | 1.37227 | 24110 ft | 473 kts | 326° |
| 2026-05-09 02:12 | 50.50596 | 1.34105 | 24111 ft | 472 kts | 317° |
| 2026-05-09 02:12 | 50.52901 | 1.30447 | 24112 ft | 471 kts | 312° |
| 2026-05-09 02:12 | 50.55122 | 1.26662 | 24111 ft | 472 kts | 312° |
| 2026-05-09 02:13 | 50.57342 | 1.22887 | 24111 ft | 472 kts | 312° |
| 2026-05-09 02:13 | 50.59613 | 1.19116 | 24111 ft | 472 kts | 313° |
| 2026-05-09 02:13 | 50.61901 | 1.15469 | 24112 ft | 473 kts | 314° |
| 2026-05-09 02:13 | 50.64250 | 1.11821 | 24110 ft | 473 kts | 315° |
| 2026-05-09 02:14 | 50.66606 | 1.08193 | 24111 ft | 473 kts | 315° |
| 2026-05-09 02:14 | 50.68951 | 1.04567 | 24111 ft | 473 kts | 314° |
| 2026-05-09 02:14 | 50.71289 | 1.00911 | 24112 ft | 473 kts | 314° |
| 2026-05-09 02:14 | 50.73618 | 0.97228 | 24112 ft | 474 kts | 314° |
| 2026-05-09 02:15 | 50.75932 | 0.93534 | 24050 ft | 474 kts | 314° |
| 2026-05-09 02:15 | 50.78240 | 0.89832 | 23795 ft | 472 kts | 314° |
| 2026-05-09 02:15 | 50.80541 | 0.86140 | 23547 ft | 471 kts | 314° |
| 2026-05-09 02:15 | 50.82834 | 0.82457 | 23295 ft | 469 kts | 313° |
| 2026-05-09 02:16 | 50.85088 | 0.78837 | 22487 ft | 465 kts | 314° |
| 2026-05-09 02:16 | 50.87352 | 0.75203 | 21614 ft | 461 kts | 313° |
| 2026-05-09 02:16 | 50.89592 | 0.71604 | 20775 ft | 456 kts | 313° |
| 2026-05-09 02:16 | 50.91811 | 0.68041 | 19941 ft | 452 kts | 313° |
| 2026-05-09 02:17 | 50.94006 | 0.64511 | 19137 ft | 448 kts | 313° |
| 2026-05-09 02:17 | 50.96180 | 0.61002 | 18342 ft | 444 kts | 313° |
| 2026-05-09 02:17 | 50.98339 | 0.57517 | 17403 ft | 442 kts | 313° |
| 2026-05-09 02:17 | 51.00471 | 0.54076 | 16218 ft | 432 kts | 313° |
| 2026-05-09 02:18 | 51.02545 | 0.50726 | 15229 ft | 419 kts | 313° |
| 2026-05-09 02:18 | 51.04516 | 0.47530 | 14980 ft | 389 kts | 313° |
| 2026-05-09 02:18 | 51.06323 | 0.44593 | 14843 ft | 360 kts | 313° |
| 2026-05-09 02:18 | 51.08025 | 0.41872 | 14720 ft | 335 kts | 314° |
| 2026-05-09 02:19 | 51.09651 | 0.39369 | 14441 ft | 318 kts | 315° |
| 2026-05-09 02:19 | 51.11237 | 0.36973 | 13896 ft | 311 kts | 315° |
| 2026-05-09 02:19 | 51.12803 | 0.34616 | 13286 ft | 308 kts | 315° |
| 2026-05-09 02:19 | 51.14342 | 0.32286 | 12664 ft | 304 kts | 315° |
| 2026-05-09 02:20 | 51.15868 | 0.29966 | 12048 ft | 301 kts | 316° |
| 2026-05-09 02:20 | 51.17371 | 0.27673 | 11452 ft | 297 kts | 315° |
| 2026-05-09 02:20 | 51.18847 | 0.25419 | 11185 ft | 293 kts | 316° |
| 2026-05-09 02:20 | 51.20317 | 0.23167 | 10810 ft | 293 kts | 316° |
| 2026-05-09 02:21 | 51.21785 | 0.20918 | 10260 ft | 294 kts | 316° |
| 2026-05-09 02:21 | 51.23260 | 0.18654 | 9771 ft | 291 kts | 316° |
| 2026-05-09 02:21 | 51.24711 | 0.16420 | 9122 ft | 288 kts | 316° |
| 2026-05-09 02:21 | 51.26140 | 0.14215 | 8541 ft | 283 kts | 316° |
| 2026-05-09 02:22 | 51.27526 | 0.12077 | 7995 ft | 279 kts | 316° |
| 2026-05-09 02:22 | 51.28920 | 0.09923 | 7447 ft | 277 kts | 316° |
| 2026-05-09 02:22 | 51.30287 | 0.07810 | 7151 ft | 260 kts | 316° |
| 2026-05-09 02:22 | 51.31542 | 0.05869 | 7130 ft | 247 kts | 316° |
| 2026-05-09 02:23 | 51.32608 | 0.03736 | 7142 ft | 247 kts | 298° |
| 2026-05-09 02:23 | 51.33199 | 0.01157 | 7096 ft | 248 kts | 280° |
| 2026-05-09 02:23 | 51.33369 | -0.01591 | 6941 ft | 248 kts | 274° |
| 2026-05-09 02:23 | 51.33511 | -0.04347 | 6814 ft | 250 kts | 274° |
| 2026-05-09 02:24 | 51.33660 | -0.07115 | 6697 ft | 249 kts | 275° |
| 2026-05-09 02:24 | 51.33808 | -0.09835 | 6581 ft | 249 kts | 275° |
| 2026-05-09 02:24 | 51.33957 | -0.12624 | 6466 ft | 248 kts | 275° |
| 2026-05-09 02:24 | 51.34106 | -0.15375 | 6351 ft | 248 kts | 275° |
| 2026-05-09 02:25 | 51.34252 | -0.18078 | 6243 ft | 247 kts | 274° |
| 2026-05-09 02:25 | 51.34397 | -0.20811 | 6121 ft | 247 kts | 274° |
| 2026-05-09 02:25 | 51.34541 | -0.23580 | 5986 ft | 247 kts | 274° |
| 2026-05-09 02:25 | 51.34680 | -0.26276 | 5780 ft | 245 kts | 274° |
| 2026-05-09 02:26 | 51.34819 | -0.28992 | 5655 ft | 245 kts | 274° |
| 2026-05-09 02:26 | 51.34959 | -0.31707 | 5539 ft | 245 kts | 274° |
| 2026-05-09 02:26 | 51.35101 | -0.34426 | 5410 ft | 245 kts | 274° |
| 2026-05-09 02:26 | 51.35245 | -0.37144 | 5308 ft | 245 kts | 274° |
| 2026-05-09 02:27 | 51.35387 | -0.39860 | 5203 ft | 245 kts | 274° |
| 2026-05-09 02:27 | 51.35529 | -0.42575 | 5083 ft | 245 kts | 274° |
| 2026-05-09 02:27 | 51.35668 | -0.45289 | 4970 ft | 245 kts | 274° |
| 2026-05-09 02:27 | 51.35804 | -0.48003 | 4860 ft | 244 kts | 274° |
| 2026-05-09 02:28 | 51.35937 | -0.50710 | 4742 ft | 244 kts | 274° |
| 2026-05-09 02:28 | 51.36071 | -0.53422 | 4630 ft | 244 kts | 274° |
| 2026-05-09 02:28 | 51.36208 | -0.56124 | 4515 ft | 244 kts | 274° |
| 2026-05-09 02:28 | 51.36344 | -0.58832 | 4402 ft | 244 kts | 274° |
| 2026-05-09 02:29 | 51.36477 | -0.61537 | 4292 ft | 244 kts | 274° |
| 2026-05-09 02:29 | 51.36607 | -0.64236 | 4179 ft | 243 kts | 273° |
| 2026-05-09 02:29 | 51.36738 | -0.66932 | 4061 ft | 243 kts | 273° |
| 2026-05-09 02:29 | 51.36872 | -0.69621 | 3951 ft | 243 kts | 275° |
| 2026-05-09 02:30 | 51.37312 | -0.72212 | 3835 ft | 243 kts | 297° |
| 2026-05-09 02:30 | 51.38316 | -0.74369 | 3723 ft | 243 kts | 319° |
| 2026-05-09 02:30 | 51.39711 | -0.75867 | 3608 ft | 241 kts | 331° |
| 2026-05-09 02:30 | 51.41169 | -0.77192 | 3482 ft | 239 kts | 337° |
| 2026-05-09 02:31 | 51.42715 | -0.77856 | 3401 ft | 223 kts | 359° |
| 2026-05-09 02:31 | 51.44203 | -0.77662 | 3396 ft | 209 kts | 18° |
| 2026-05-09 02:31 | 51.45520 | -0.76770 | 3361 ft | 204 kts | 36° |
| 2026-05-09 02:31 | 51.46576 | -0.75316 | 3237 ft | 199 kts | 53° |
| 2026-05-09 02:32 | 51.47296 | -0.73455 | 3058 ft | 195 kts | 71° |
| 2026-05-09 02:32 | 51.47619 | -0.71381 | 2867 ft | 189 kts | 88° |
| 2026-05-09 02:32 | 51.47645 | -0.69318 | 2622 ft | 183 kts | 90° |
| 2026-05-09 02:32 | 51.47657 | -0.67303 | 2363 ft | 177 kts | 90° |
| 2026-05-09 02:33 | 51.47668 | -0.65379 | 2144 ft | 169 kts | 89° |
| 2026-05-09 02:33 | 51.47677 | -0.63564 | 1936 ft | 157 kts | 89° |
| 2026-05-09 02:33 | 51.47686 | -0.61861 | 1725 ft | 148 kts | 89° |
| 2026-05-09 02:33 | 51.47694 | -0.60253 | 1533 ft | 142 kts | 88° |
| 2026-05-09 02:34 | 51.47702 | -0.58679 | 1351 ft | 141 kts | 89° |
| 2026-05-09 02:34 | 51.47710 | -0.57109 | 1164 ft | 140 kts | 88° |
| 2026-05-09 02:34 | 51.47718 | -0.55543 | 982 ft | 141 kts | 88° |
| 2026-05-09 02:34 | 51.47724 | -0.53974 | 785 ft | 140 kts | 88° |
| 2026-05-09 02:35 | 51.47730 | -0.52412 | 598 ft | 140 kts | 88° |
| 2026-05-09 02:35 | 51.47741 | -0.50854 | 431 ft | 139 kts | 89° |
| 2026-05-09 02:35 | 51.47743 | -0.49303 | 227 ft | 139 kts | 89° |
| 2026-05-09 02:35 | 51.47745 | -0.47792 | 101 ft | 130 kts | 89° |
| 2026-05-09 02:36 | 51.47757 | -0.46587 | 99 ft | 71 kts | 90° |
| 2026-05-09 02:36 | 51.47753 | -0.46263 | 91 ft | 1 kts | 108° |
| 2026-05-09 02:36 | 51.47747 | -0.46244 | 91 ft | 7 kts | 118° |
| 2026-05-09 02:36 | 51.47670 | -0.46102 | 89 ft | 23 kts | 143° |
| 2026-05-09 02:37 | 51.47570 | -0.46074 | 93 ft | 9 kts | 198° |
| 2026-05-09 02:37 | 51.47526 | -0.46114 | 93 ft | 6 kts | 236° |
| 2026-05-09 02:37 | 51.47518 | -0.46176 | 90 ft | 6 kts | 263° |
| 2026-05-09 02:37 | 51.47516 | -0.46258 | 89 ft | 11 kts | 269° |
| 2026-05-09 02:38 | 51.47516 | -0.46373 | 91 ft | 9 kts | 270° |
| 2026-05-09 02:38 | 51.47516 | -0.46456 | 91 ft | 6 kts | 269° |
| 2026-05-09 02:38 | 51.47516 | -0.46499 | 92 ft | 2 kts | 269° |
| 2026-05-09 02:38 | 51.47515 | -0.46542 | 94 ft | 10 kts | 267° |
| 2026-05-09 02:39 | 51.47511 | -0.46664 | 92 ft | 11 kts | 266° |
| 2026-05-09 02:39 | 51.47470 | -0.46753 | 90 ft | 11 kts | 188° |
| 2026-05-09 02:39 | 51.47400 | -0.46731 | 89 ft | 9 kts | 165° |
| 2026-05-09 02:39 | 51.47379 | -0.46653 | 89 ft | 8 kts | 75° |
| 2026-05-09 02:40 | 51.47385 | -0.46621 | 89 ft | 0 kts | 70° |
| 2026-05-09 02:40 | 51.47397 | -0.46598 | 92 ft | 0 kts | 119° |